createdAt,value
2018-07-25T00:01:57.603Z,12.83
2018-07-25T00:04:30.545Z,13.67
2018-07-25T00:07:02.543Z,13.30
2018-07-25T00:09:34.302Z,12.43
2018-07-25T00:12:06.323Z,13.77
2018-07-25T00:14:38.162Z,13.80
2018-07-25T00:17:09.583Z,13.77
2018-07-25T00:19:40.763Z,13.00
2018-07-25T00:22:12.942Z,13.30
2018-07-25T00:24:45.664Z,13.50
2018-07-25T00:27:16.122Z,13.17
2018-07-25T00:29:46.863Z,13.90
2018-07-25T00:32:19.822Z,15.97
2018-07-25T00:34:51.103Z,12.87
2018-07-25T00:37:23.162Z,13.97
2018-07-25T00:39:54.663Z,12.93
2018-07-25T00:42:26.962Z,13.87
2018-07-25T00:44:58.664Z,13.40
2018-07-25T00:47:35.822Z,13.43
2018-07-25T00:50:07.463Z,13.63
2018-07-25T00:52:39.503Z,13.67
2018-07-25T00:55:11.323Z,13.87
2018-07-25T00:57:43.283Z,13.87
2018-07-25T01:00:15.223Z,13.87
2018-07-25T01:02:47.686Z,14.23
2018-07-25T01:05:20.023Z,13.80
2018-07-25T01:07:50.863Z,13.97
2018-07-25T01:10:22.903Z,13.17
2018-07-25T01:12:55.243Z,12.50
2018-07-25T01:15:26.463Z,13.30
2018-07-25T01:17:58.523Z,13.00
2018-07-25T01:20:30.243Z,12.97
2018-07-25T01:23:02.222Z,13.23
2018-07-25T01:25:33.702Z,12.80
2018-07-25T01:28:05.843Z,12.70
2018-07-25T01:30:37.263Z,12.50
2018-07-25T01:33:09.162Z,11.80
2018-07-25T01:35:40.622Z,12.70
2018-07-25T01:38:12.523Z,11.93
2018-07-25T01:40:44.622Z,12.50
2018-07-25T01:43:16.722Z,12.80
2018-07-25T01:45:48.403Z,13.00
2018-07-25T01:48:20.708Z,13.03
2018-07-25T01:50:52.436Z,13.00
2018-07-25T01:53:24.462Z,14.07
2018-07-25T01:55:56.449Z,12.67
2018-07-25T01:58:28.302Z,14.67
2018-07-25T02:00:59.905Z,14.43
2018-07-25T02:03:31.542Z,13.60
2018-07-25T02:06:03.923Z,14.90
2018-07-25T02:08:36.023Z,13.30
2018-07-25T02:11:08.402Z,14.50
2018-07-25T02:13:40.462Z,14.73
2018-07-25T02:16:12.179Z,15.00
2018-07-25T02:18:44.522Z,15.60
2018-07-25T02:21:15.922Z,13.97
2018-07-25T02:23:48.385Z,14.50
2018-07-25T02:26:20.084Z,14.60
2018-07-25T02:28:51.742Z,14.57
2018-07-25T02:31:23.682Z,14.47
2018-07-25T02:33:59.983Z,14.17
2018-07-25T02:36:31.723Z,13.90
2018-07-25T02:39:03.943Z,13.03
2018-07-25T02:41:35.883Z,12.83
2018-07-25T02:44:08.324Z,13.73
2018-07-25T02:46:41.057Z,13.40
2018-07-25T02:49:12.304Z,14.77
2018-07-25T02:51:44.622Z,14.30
2018-07-25T02:54:16.443Z,14.43
2018-07-25T02:56:48.644Z,14.13
2018-07-25T02:59:20.643Z,14.40
2018-07-25T03:01:52.803Z,14.23
2018-07-25T03:04:23.988Z,14.53
2018-07-25T03:06:56.147Z,15.77
2018-07-25T03:09:28.363Z,14.37
2018-07-25T03:12:00.602Z,13.63
2018-07-25T03:14:32.982Z,14.67
2018-07-25T03:17:04.882Z,13.53
2018-07-25T03:19:36.383Z,13.73
2018-07-25T03:22:08.164Z,14.73
2018-07-25T03:24:40.523Z,14.47
2018-07-25T03:27:12.422Z,14.33
2018-07-25T03:29:44.742Z,16.13
2018-07-25T03:32:17.482Z,16.30
2018-07-25T03:34:49.381Z,15.60
2018-07-25T03:37:21.349Z,16.20
2018-07-25T03:39:52.982Z,15.40
2018-07-25T03:42:25.581Z,14.27
2018-07-25T03:44:58.300Z,14.23
2018-07-25T03:47:30.063Z,14.30
2018-07-25T03:50:02.285Z,14.23
2018-07-25T03:52:34.060Z,20.40
2018-07-25T03:55:05.881Z,14.20
2018-07-25T03:57:37.741Z,16.90
2018-07-25T04:00:09.741Z,14.03
2018-07-25T04:02:42.590Z,14.20
2018-07-25T04:05:13.940Z,13.43
2018-07-25T04:07:46.401Z,14.70
2018-07-25T04:10:17.743Z,14.13
2018-07-25T04:12:50.320Z,14.40
2018-07-25T04:15:22.341Z,16.07
2018-07-25T04:17:53.422Z,16.20
2018-07-25T04:20:25.701Z,14.30
2018-07-25T04:22:57.742Z,17.27
2018-07-25T04:25:29.925Z,16.43
2018-07-25T04:28:01.670Z,16.10
2018-07-25T04:30:33.962Z,15.50
2018-07-25T04:33:06.022Z,15.00
2018-07-25T04:35:37.742Z,14.37
2018-07-25T04:38:09.422Z,19.70
2018-07-25T04:40:41.202Z,15.53
2018-07-25T04:43:13.502Z,15.67
2018-07-25T04:45:45.422Z,16.60
2018-07-25T04:48:17.882Z,15.13
2018-07-25T04:50:49.422Z,16.93
2018-07-25T04:53:21.502Z,15.40
2018-07-25T04:55:52.882Z,14.70
2018-07-25T04:58:24.703Z,15.80
2018-07-25T05:00:56.543Z,15.00
2018-07-25T05:03:28.222Z,23.53
2018-07-25T05:06:00.764Z,14.57
2018-07-25T05:08:32.262Z,14.80
2018-07-25T05:11:04.103Z,15.40
2018-07-25T05:13:36.822Z,15.00
2018-07-25T05:16:09.582Z,14.47
2018-07-25T05:18:41.503Z,15.33
2018-07-25T05:21:13.202Z,16.87
2018-07-25T05:23:45.422Z,16.67
2018-07-25T05:26:17.922Z,15.03
2018-07-25T05:28:50.164Z,15.67
2018-07-25T05:31:21.923Z,15.00
2018-07-25T05:33:53.883Z,15.73
2018-07-25T05:36:25.745Z,16.57
2018-07-25T05:38:57.403Z,16.10
2018-07-25T05:41:28.883Z,15.17
2018-07-25T05:44:01.383Z,15.60
2018-07-25T05:46:33.083Z,15.47
2018-07-25T05:49:06.003Z,14.57
2018-07-25T05:51:38.863Z,16.60
2018-07-25T05:54:10.343Z,15.43
2018-07-25T05:56:42.650Z,15.53
2018-07-25T05:59:14.383Z,16.57
2018-07-25T06:01:46.283Z,18.57
2018-07-25T06:04:18.422Z,16.67
2018-07-25T06:06:51.023Z,18.17
2018-07-25T06:09:23.223Z,17.80
2018-07-25T06:11:55.347Z,17.67
2018-07-25T06:14:27.364Z,18.93
2018-07-25T06:16:59.023Z,18.20
2018-07-25T06:19:31.344Z,18.90
2018-07-25T06:22:04.045Z,19.67
2018-07-25T06:24:35.563Z,20.27
2018-07-25T06:27:07.944Z,18.50
2018-07-25T06:29:39.723Z,18.33
2018-07-25T06:32:11.903Z,18.60
2018-07-25T06:34:44.644Z,18.53
2018-07-25T06:37:16.203Z,18.30
2018-07-25T06:39:48.243Z,19.47
2018-07-25T06:42:19.725Z,17.00
2018-07-25T06:44:51.623Z,17.33
2018-07-25T06:47:23.384Z,16.90
2018-07-25T06:49:55.724Z,16.40
2018-07-25T06:52:27.234Z,17.33
2018-07-25T06:54:58.586Z,17.23
2018-07-25T06:57:30.233Z,17.80
2018-07-25T07:00:02.083Z,17.47
2018-07-25T07:02:34.185Z,17.47
2018-07-25T07:05:06.335Z,17.37
2018-07-25T07:07:37.453Z,16.27
2018-07-25T07:10:09.953Z,15.50
2018-07-25T07:12:41.434Z,16.30
2018-07-25T07:15:14.212Z,16.50
2018-07-25T07:17:47.174Z,18.43
2018-07-25T07:20:18.695Z,16.23
2018-07-25T07:22:51.653Z,16.97
2018-07-25T07:25:23.895Z,15.87
2018-07-25T07:27:54.915Z,15.80
2018-07-25T07:30:26.133Z,16.60
2018-07-25T07:32:57.333Z,15.53
2018-07-25T07:35:29.434Z,15.83
2018-07-25T07:38:01.733Z,16.53
2018-07-25T07:40:33.493Z,17.77
2018-07-25T07:43:05.951Z,16.00
2018-07-25T07:45:37.709Z,16.10
2018-07-25T07:48:09.251Z,16.20
2018-07-25T07:50:41.709Z,17.60
2018-07-25T07:53:13.390Z,17.17
2018-07-25T07:55:45.730Z,17.07
2018-07-25T07:58:17.370Z,16.93
2018-07-25T08:00:49.233Z,17.70
2018-07-25T08:03:21.301Z,18.73
2018-07-25T08:05:52.952Z,16.53
2018-07-25T08:08:24.613Z,18.13
2018-07-25T08:10:56.694Z,16.33
2018-07-25T08:13:28.753Z,17.17
2018-07-25T08:16:00.333Z,19.00
2018-07-25T08:18:31.775Z,19.00
2018-07-25T08:21:04.746Z,17.60
2018-07-25T08:23:36.473Z,17.30
2018-07-25T08:26:08.334Z,16.30
2018-07-25T08:28:40.192Z,17.03
2018-07-25T08:31:12.592Z,16.40
2018-07-25T08:33:44.272Z,17.13
2018-07-25T08:36:15.892Z,17.23
2018-07-25T08:38:47.912Z,17.77
2018-07-25T08:41:19.710Z,17.83
2018-07-25T08:43:52.392Z,16.70
2018-07-25T08:46:23.852Z,19.10
2018-07-25T08:48:56.212Z,17.93
2018-07-25T08:51:28.693Z,19.57
2018-07-25T08:54:01.181Z,20.70
2018-07-25T08:56:32.592Z,22.37
2018-07-25T08:59:04.352Z,22.70
2018-07-25T09:01:36.432Z,22.70
2018-07-25T09:04:08.513Z,25.47
2018-07-25T09:06:40.991Z,24.83
2018-07-25T09:09:13.036Z,25.77
2018-07-25T09:11:44.672Z,23.60
2018-07-25T09:14:16.631Z,26.90
2018-07-25T09:16:48.199Z,23.80
2018-07-25T09:19:19.912Z,25.10
2018-07-25T09:21:51.812Z,23.00
2018-07-25T09:24:24.279Z,21.53
2018-07-25T09:26:55.830Z,19.83
2018-07-25T09:29:27.906Z,22.60
2018-07-25T09:31:59.385Z,22.90
2018-07-25T09:34:31.546Z,21.80
2018-07-25T09:37:03.506Z,21.20
2018-07-25T09:39:35.405Z,20.30
2018-07-25T09:42:06.729Z,23.00
2018-07-25T09:44:38.685Z,21.43
2018-07-25T09:47:10.924Z,21.97
2018-07-25T09:49:41.872Z,20.03
2018-07-25T09:52:13.812Z,19.47
2018-07-25T09:54:46.034Z,18.80
2018-07-25T09:57:17.669Z,18.60
2018-07-25T09:59:50.146Z,18.70
2018-07-25T10:02:21.346Z,20.43
2018-07-25T10:04:54.085Z,19.90
2018-07-25T10:07:25.835Z,19.87
2018-07-25T10:09:57.728Z,18.83
2018-07-25T10:12:29.621Z,19.67
2018-07-25T10:15:01.598Z,19.40
2018-07-25T10:17:32.783Z,20.20
2018-07-25T10:20:04.731Z,20.50
2018-07-25T10:22:35.989Z,24.00
2018-07-25T10:25:08.290Z,25.87
2018-07-25T10:27:40.012Z,22.43
2018-07-25T10:30:11.933Z,23.00
2018-07-25T10:32:43.495Z,21.87
2018-07-25T10:35:16.942Z,22.70
2018-07-25T10:37:49.107Z,20.83
2018-07-25T10:40:21.219Z,20.90
2018-07-25T10:42:53.260Z,21.70
2018-07-25T10:45:24.743Z,21.13
2018-07-25T10:47:56.899Z,21.67
2018-07-25T10:50:29.378Z,21.70
2018-07-25T10:53:00.998Z,20.47
2018-07-25T10:55:32.866Z,19.80
2018-07-25T10:58:04.170Z,19.37
2018-07-25T11:00:36.200Z,17.53
2018-07-25T11:03:07.360Z,16.17
2018-07-25T11:05:39.741Z,20.50
2018-07-25T11:08:10.899Z,18.60
2018-07-25T11:10:43.619Z,18.50
2018-07-25T11:13:15.121Z,20.97
2018-07-25T11:15:46.199Z,19.57
2018-07-25T11:18:17.819Z,18.43
2018-07-25T11:20:50.059Z,18.23
2018-07-25T11:23:21.281Z,18.50
2018-07-25T11:25:53.720Z,18.97
2018-07-25T11:28:25.706Z,15.80
2018-07-25T11:30:58.680Z,18.73
2018-07-25T11:33:31.181Z,18.33
2018-07-25T11:36:03.401Z,17.73
2018-07-25T11:38:35.359Z,18.97
2018-07-25T11:41:07.319Z,20.67
2018-07-25T11:43:39.367Z,18.17
2018-07-25T11:46:12.034Z,19.70
2018-07-25T11:48:43.710Z,17.97
2018-07-25T11:51:15.585Z,16.40
2018-07-25T11:53:47.564Z,17.90
2018-07-25T11:56:20.264Z,18.30
2018-07-25T11:58:52.586Z,17.53
2018-07-25T12:01:24.502Z,16.93
2018-07-25T12:03:56.211Z,15.80
2018-07-25T12:06:28.384Z,15.77
2018-07-25T12:09:00.212Z,15.00
2018-07-25T12:11:32.771Z,14.27
2018-07-25T12:14:04.112Z,15.70
2018-07-25T12:16:36.373Z,16.87
2018-07-25T12:19:09.595Z,15.07
2018-07-25T12:21:41.075Z,16.80
2018-07-25T12:24:14.614Z,16.43
2018-07-25T12:26:46.106Z,17.23
2018-07-25T12:29:17.736Z,16.63
2018-07-25T12:31:49.780Z,15.37
2018-07-25T12:34:22.117Z,16.10
2018-07-25T12:36:54.583Z,14.23
2018-07-25T12:39:26.377Z,15.97
2018-07-25T12:41:58.307Z,14.93
2018-07-25T12:44:30.599Z,15.63
2018-07-25T12:47:02.919Z,14.00
2018-07-25T12:49:35.186Z,15.10
2018-07-25T12:52:06.846Z,14.50
2018-07-25T12:54:39.047Z,13.00
2018-07-25T12:57:10.893Z,14.40
2018-07-25T12:59:43.511Z,14.90
2018-07-25T13:02:16.517Z,13.50
2018-07-25T13:04:47.998Z,13.57
2018-07-25T13:07:20.359Z,14.87
2018-07-25T13:09:52.205Z,15.00
2018-07-25T13:12:24.315Z,14.50
2018-07-25T13:14:56.372Z,14.37
2018-07-25T13:17:28.117Z,14.07
2018-07-25T13:19:59.427Z,14.00
2018-07-25T13:22:31.951Z,13.97
2018-07-25T13:25:05.488Z,12.60
2018-07-25T13:27:38.229Z,14.13
2018-07-25T13:30:09.969Z,13.27
2018-07-25T13:32:41.548Z,13.07
2018-07-25T13:35:13.203Z,13.97
2018-07-25T13:37:45.181Z,12.67
2018-07-25T13:40:16.164Z,16.17
2018-07-25T13:42:48.606Z,13.83
2018-07-25T13:45:20.030Z,14.30
2018-07-25T13:47:51.642Z,12.60
2018-07-25T13:50:23.857Z,12.63
2018-07-25T13:52:56.098Z,12.57
2018-07-25T13:55:27.698Z,15.03
2018-07-25T13:57:59.586Z,13.27
2018-07-25T14:00:32.231Z,12.70
2018-07-25T14:03:04.172Z,12.20
2018-07-25T14:05:36.472Z,12.40
2018-07-25T14:08:08.512Z,13.27
2018-07-25T14:10:40.771Z,12.80
2018-07-25T14:13:12.560Z,13.57
2018-07-25T14:15:44.518Z,13.10
2018-07-25T14:18:15.818Z,12.87
2018-07-25T14:20:48.897Z,13.60
2018-07-25T14:23:21.837Z,12.37
2018-07-25T14:25:53.896Z,12.30
2018-07-25T14:28:25.458Z,11.97
2018-07-25T14:30:57.279Z,12.10
2018-07-25T14:33:29.777Z,12.73
2018-07-25T14:36:01.197Z,12.40
2018-07-25T14:38:32.997Z,13.47
2018-07-25T14:41:04.797Z,12.60
2018-07-25T14:43:36.657Z,11.67
2018-07-25T14:46:08.917Z,13.57
2018-07-25T14:48:40.522Z,13.00
2018-07-25T14:51:12.042Z,13.80
2018-07-25T14:53:44.337Z,11.53
2018-07-25T14:56:16.659Z,12.00
2018-07-25T14:58:48.897Z,12.30
2018-07-25T15:01:22.173Z,12.10
2018-07-25T15:03:53.638Z,11.80
2018-07-25T15:06:25.977Z,12.27
2018-07-25T15:08:58.757Z,11.30
2018-07-25T15:11:30.377Z,12.67
2018-07-25T15:14:02.858Z,13.00
2018-07-25T15:16:34.418Z,16.63
2018-07-25T15:19:06.357Z,11.40
2018-07-25T15:21:37.778Z,12.20
2018-07-25T15:24:10.117Z,12.23
2018-07-25T15:26:42.237Z,12.50
2018-07-25T15:29:14.292Z,13.37
2018-07-25T15:34:18.534Z,12.17
2018-07-25T15:36:52.874Z,17.10
2018-07-25T15:39:27.091Z,12.27
2018-07-25T15:42:00.352Z,12.23
2018-07-25T15:44:32.151Z,11.60
2018-07-25T15:47:05.055Z,15.90
2018-07-25T15:49:37.175Z,11.60
2018-07-25T15:52:09.111Z,10.53
2018-07-25T15:54:41.054Z,13.20
2018-07-25T15:57:14.131Z,11.70
2018-07-25T15:59:46.156Z,11.77
2018-07-25T16:02:18.051Z,9.37
2018-07-25T16:04:49.811Z,9.73
2018-07-25T16:07:22.531Z,9.70
2018-07-25T16:09:54.231Z,8.90
2018-07-25T16:12:26.071Z,9.40
2018-07-25T16:14:57.915Z,11.30
2018-07-25T16:17:30.472Z,10.33
2018-07-25T16:20:02.892Z,7.87
2018-07-25T16:22:34.811Z,8.90
2018-07-25T16:25:07.392Z,8.10
2018-07-25T16:27:39.572Z,7.90
2018-07-25T16:30:11.253Z,7.53
2018-07-25T16:32:43.447Z,7.97
2018-07-25T16:35:15.651Z,8.27
2018-07-25T16:37:47.672Z,8.20
2018-07-25T16:40:20.261Z,7.93
2018-07-25T16:42:52.851Z,8.83
2018-07-25T16:45:25.578Z,8.70
2018-07-25T16:47:57.551Z,8.80
2018-07-25T16:50:29.798Z,8.83
2018-07-25T16:53:01.591Z,9.13
2018-07-25T16:55:33.171Z,9.10
2018-07-25T16:58:04.990Z,9.10
2018-07-25T17:00:36.851Z,9.33
2018-07-25T17:03:08.711Z,9.23
2018-07-25T17:05:41.250Z,9.33
2018-07-25T17:08:13.850Z,8.53
2018-07-25T17:10:45.292Z,8.70
2018-07-25T17:13:18.170Z,9.27
2018-07-25T17:15:50.651Z,8.90
2018-07-25T17:18:22.874Z,9.20
2018-07-25T17:20:54.930Z,9.53
2018-07-25T17:23:26.494Z,9.13
2018-07-25T17:25:58.568Z,8.00
2018-07-25T17:28:31.811Z,8.73
2018-07-25T17:31:02.831Z,7.80
2018-07-25T17:33:35.433Z,7.53
2018-07-25T17:36:07.051Z,6.50
2018-07-25T17:38:39.091Z,6.30
2018-07-25T17:41:10.411Z,6.60
2018-07-25T17:43:42.170Z,7.03
2018-07-25T17:46:13.792Z,6.60
2018-07-25T17:48:45.771Z,6.07
2018-07-25T17:51:18.132Z,6.60
2018-07-25T17:53:50.132Z,5.77
2018-07-25T17:56:22.471Z,6.10
2018-07-25T17:58:53.755Z,5.40
2018-07-25T18:01:26.133Z,5.03
2018-07-25T18:03:57.811Z,5.93
2018-07-25T18:06:30.432Z,5.40
2018-07-25T18:09:02.251Z,5.83
2018-07-25T18:11:34.492Z,5.73
2018-07-25T18:14:10.771Z,6.47
2018-07-25T18:16:42.711Z,6.20
2018-07-25T18:19:16.030Z,5.77
2018-07-25T18:21:48.791Z,5.83
2018-07-25T18:24:20.371Z,6.57
2018-07-25T18:26:52.370Z,6.87
2018-07-25T18:29:24.451Z,6.87
2018-07-25T18:31:56.711Z,7.30
2018-07-25T18:34:29.151Z,7.43
2018-07-25T18:37:00.635Z,8.30
2018-07-25T18:39:32.971Z,8.50
2018-07-25T18:42:04.831Z,8.60
2018-07-25T18:44:36.651Z,8.67
2018-07-25T18:47:08.325Z,9.30
2018-07-25T18:49:39.951Z,8.10
2018-07-25T18:52:11.951Z,8.27
2018-07-25T18:54:43.851Z,9.30
2018-07-25T18:57:15.552Z,8.90
2018-07-25T18:59:47.612Z,8.53
2018-07-25T19:02:19.292Z,6.90
2018-07-25T19:04:51.951Z,6.70
2018-07-25T19:07:25.012Z,6.90
2018-07-25T19:09:57.491Z,7.43
2018-07-25T19:12:29.270Z,7.20
2018-07-25T19:15:05.611Z,6.87
2018-07-25T19:17:37.450Z,7.10
2018-07-25T19:20:09.431Z,7.40
2018-07-25T19:22:40.513Z,9.90
2018-07-25T19:25:12.452Z,7.33
2018-07-25T19:27:44.174Z,7.77
2018-07-25T19:30:16.032Z,6.80
2018-07-25T19:32:48.047Z,9.07
2018-07-25T19:35:19.712Z,7.30
2018-07-25T19:37:50.592Z,7.90
2018-07-25T19:40:22.800Z,8.20
2018-07-25T19:42:55.611Z,11.53
2018-07-25T19:45:27.931Z,12.27
2018-07-25T19:47:59.612Z,16.03
2018-07-25T19:50:31.964Z,16.43
2018-07-25T19:53:04.892Z,15.03
2018-07-25T19:55:36.672Z,18.10
2018-07-25T19:58:09.332Z,17.10
2018-07-25T20:00:40.754Z,16.07
2018-07-25T20:03:13.652Z,16.20
2018-07-25T20:05:45.152Z,15.40
2018-07-25T20:08:17.292Z,16.20
2018-07-25T20:10:48.832Z,13.67
2018-07-25T20:13:20.912Z,13.10
2018-07-25T20:15:58.952Z,12.30
2018-07-25T20:18:31.292Z,11.40
2018-07-25T20:21:03.446Z,9.80
2018-07-25T20:23:36.092Z,9.60
2018-07-25T20:26:07.712Z,8.90
2018-07-25T20:28:40.072Z,8.90
2018-07-25T20:31:11.692Z,8.00
2018-07-25T20:33:43.932Z,8.90
2018-07-25T20:36:16.432Z,9.63
2018-07-25T20:38:48.632Z,11.60
2018-07-25T20:41:20.633Z,10.73
2018-07-25T20:43:52.954Z,8.90
2018-07-25T20:46:24.952Z,10.50
2018-07-25T20:48:57.552Z,9.40
2018-07-25T20:51:29.572Z,9.80
2018-07-25T20:54:01.538Z,13.30
2018-07-25T20:56:35.356Z,11.83
2018-07-25T20:59:07.811Z,10.40
2018-07-25T21:01:39.673Z,10.87
2018-07-25T21:04:12.312Z,9.50
2018-07-25T21:06:45.351Z,10.40
2018-07-25T21:09:16.311Z,9.30
2018-07-25T21:11:48.733Z,8.53
2018-07-25T21:14:20.312Z,9.53
2018-07-25T21:16:52.251Z,9.20
2018-07-25T21:19:23.753Z,9.53
2018-07-25T21:21:56.349Z,9.40
2018-07-25T21:24:28.211Z,8.70
2018-07-25T21:27:00.672Z,9.10
2018-07-25T21:29:32.732Z,8.73
2018-07-25T21:32:04.376Z,9.10
2018-07-25T21:34:36.492Z,10.63
2018-07-25T21:37:08.251Z,8.97
2018-07-25T21:39:39.671Z,9.83
2018-07-25T21:42:11.352Z,9.40
2018-07-25T21:44:43.351Z,9.20
2018-07-25T21:47:15.172Z,8.97
2018-07-25T21:49:46.892Z,9.33
2018-07-25T21:52:18.713Z,9.30
2018-07-25T21:54:50.711Z,8.53
2018-07-25T21:57:22.313Z,9.37
2018-07-25T21:59:54.712Z,9.30
2018-07-25T22:02:26.713Z,9.27
2018-07-25T22:04:59.075Z,9.43
2018-07-25T22:07:31.612Z,9.10
2018-07-25T22:10:03.353Z,9.97
2018-07-25T22:12:34.132Z,8.90
2018-07-25T22:15:06.395Z,9.00
2018-07-25T22:17:39.672Z,9.67
2018-07-25T22:20:13.272Z,9.43
2018-07-25T22:22:45.792Z,10.93
2018-07-25T22:25:17.592Z,9.60
2018-07-25T22:27:49.852Z,10.40
2018-07-25T22:30:21.615Z,10.53
2018-07-25T22:32:53.616Z,10.57
2018-07-25T22:35:25.094Z,10.43
2018-07-25T22:37:56.912Z,12.70
2018-07-25T22:40:28.132Z,8.80
2018-07-25T22:42:59.492Z,10.17
2018-07-25T22:45:31.392Z,10.83
2018-07-25T22:48:03.193Z,10.20
2018-07-25T22:50:34.872Z,9.83
2018-07-25T22:53:05.972Z,9.30
2018-07-25T22:55:38.115Z,9.47
2018-07-25T22:58:09.975Z,9.10
2018-07-25T23:00:41.632Z,10.33
2018-07-25T23:03:14.392Z,9.70
2018-07-25T23:05:46.271Z,10.10
2018-07-25T23:08:18.592Z,10.67
2018-07-25T23:10:55.491Z,9.60
2018-07-25T23:13:26.632Z,9.90
2018-07-25T23:15:59.052Z,9.63
2018-07-25T23:18:30.592Z,10.60
2018-07-25T23:21:02.455Z,9.87
2018-07-25T23:23:34.174Z,9.57
2018-07-25T23:26:05.812Z,10.10
2018-07-25T23:28:37.591Z,9.73
2018-07-25T23:31:09.773Z,10.17
2018-07-25T23:33:41.372Z,9.97
2018-07-25T23:36:14.271Z,63.80
2018-07-25T23:38:45.992Z,12.97
2018-07-25T23:41:17.692Z,14.13
2018-07-25T23:43:50.012Z,11.80
2018-07-25T23:46:22.251Z,11.30
2018-07-25T23:48:54.391Z,11.00
2018-07-25T23:51:25.651Z,10.87
2018-07-25T23:53:58.211Z,10.37
2018-07-25T23:56:29.994Z,10.90
2018-07-25T23:59:01.451Z,9.50
